ROKJ(METAR)
08/14 19:00
ROKJ 141000Z 12011KT 9999 FEW014 BKNXXX 30/27 Q1009 RMK A2982=
戻る
トップページへ戻る
IMOC Co,.Ltd.